Alderson, Oklahoma
Current Conditions -  °F | °C
As of 3:53 PM on Thursday 23 Oct 2014 (Local Time) from KMLC Reporting Station
Scattered Clouds Scattered Clouds  
Wind Chill: 68°   Ceiling: Unl
Heat Index: 68°   Visibility: 10mi
Dew Point: 59°   Wind: 5mph
Humidity: 73%   Direction: NA
Pressure: 30.1"   Gusts: NA
Location:  34.9°N, 95.69°W
Report Text: KMLC 232053Z AUTO VRB04KT 10SM SCT085 20/15 A3010 RMK AO2 SLP186 60000 T02000150 56026
Loading
Personal Weather Stations






























Interactive Weather Map New forecast layout! Learn more

10-Day Weather Forecast

Advertisements
Track Severe Weather on mobile